Terminal Aerodrome Forecast
Issued by NWS Boise, ID

Home | Current Version | Previous Version | Text Only | Print | Product List | Glossary On
Versions: 1 2 3 4 5 6 7 8 9 10 11 12 13 14 15 16 17 18 19 20
000
FTUS45 KBOI 200657 AAA
TAFBOI
TAF AMD
KBOI 200657Z 2007/2106 33008KT P6SM BKN200
     FM200800 31009KT P6SM SCT200
     FM210300 32004KT P6SM SCT200=

USA.gov is the U.S. government's official web portal to all federal, state and local government web resources and services.